To NAV CANADA Home Page Login to a new session Search on AWWS site Feedback and Comments Disclaimer Vers la page française équivalente Tips FAQ What's new on the site To the Forecasts and Observations / NOTAM section To "File a Flight Plan" website Publications and other links Update of the User's profile FIC Telephone Numbers My Weather Data Folder Route Weather Data Regional Weather Data Local Weather Data To the Forecasts and Observations / NOTAM section
Request Generated 03/04/2015 at 02:49:05 UTC . Weather information available at that time is displayed.

METAR/TAF

CHURCHILL/MB    (show WxCam)

METAR CYYQ 040200Z 34012KT 10SM IC SCT010 M24/M27 A3005 RMK SC3
SLP181=
METAR CYYQ 040100Z 35015KT 10SM IC SCT015 M22/M25 A3004 RMK SC3
SLP176=
SPECI CYYQ 040039Z 35016G21KT 8SM IC SCT016 M22/M24 A3004 RMK SC3
SLP175=
SPECI CYYQ 040025Z 35011KT 3SM -SN BKN018 M22/M25 A3003 RMK SC6
SLP173=
METAR CYYQ 040000Z 02012KT 15SM FEW020 SCT270 M21/M24 A3002 RMK
SC2CI1 SLP170=

TAF CYYQ 032338Z 0400/0424 02012KT P6SM FEW030 SCT250
BECMG 0404/0406 34015KT
FM041700 30020KT P6SM FEW040 SCT120
RMK NXT FCST BY 040600Z=
Your time UTC time
Weather data provided by Environment Canada and NAV CANADA